createdAt,value
2022-08-07T03:02:36.463Z,19.00
2022-08-07T03:05:11.703Z,19.00
2022-08-07T03:08:07.618Z,18.90
2022-08-07T03:10:40.709Z,18.80
2022-08-07T03:13:19.674Z,18.70
2022-08-07T03:15:58.271Z,18.70
2022-08-07T03:18:34.965Z,18.60
2022-08-07T03:21:08.480Z,18.60
2022-08-07T03:24:19.836Z,18.60
2022-08-07T03:26:33.188Z,18.60
2022-08-07T03:29:10.997Z,18.50
2022-08-07T03:31:46.258Z,18.60
2022-08-07T03:34:22.316Z,18.50
2022-08-07T03:36:54.987Z,18.40
2022-08-07T03:39:45.752Z,18.40
2022-08-07T03:42:18.866Z,18.40
2022-08-07T03:44:53.613Z,18.40
2022-08-07T03:47:27.988Z,18.40
2022-08-07T03:49:59.820Z,18.40
2022-08-07T03:52:34.221Z,18.40
2022-08-07T03:55:07.853Z,18.40
2022-08-07T03:58:34.023Z,18.40
2022-08-07T04:00:35.366Z,18.40
2022-08-07T04:03:05.083Z,18.40
2022-08-07T04:05:45.565Z,18.40
2022-08-07T04:08:21.511Z,18.30
2022-08-07T04:10:54.831Z,18.20
2022-08-07T04:14:33.058Z,18.20
2022-08-07T04:16:32.365Z,18.20
2022-08-07T04:19:12.618Z,18.30
2022-08-07T04:21:48.026Z,18.30
2022-08-07T04:24:34.152Z,18.30
2022-08-07T04:27:20.592Z,18.30
2022-08-07T04:30:01.650Z,18.30
2022-08-07T04:33:00.675Z,18.30
2022-08-07T04:35:35.107Z,18.30
2022-08-07T04:38:07.978Z,18.40
2022-08-07T04:40:51.338Z,18.40
2022-08-07T04:44:09.982Z,18.40
2022-08-07T04:46:20.158Z,18.40
2022-08-07T04:49:14.884Z,18.40
2022-08-07T04:51:55.905Z,18.40
2022-08-07T04:54:33.326Z,18.40
2022-08-07T04:58:09.905Z,18.50
2022-08-07T05:00:09.920Z,18.40
2022-08-07T05:02:53.547Z,18.50
2022-08-07T05:05:53.632Z,18.50
2022-08-07T05:08:45.491Z,18.60
2022-08-07T05:11:19.377Z,18.50
2022-08-07T05:14:54.549Z,18.60
2022-08-07T05:16:47.468Z,18.60
2022-08-07T05:19:25.686Z,18.70
2022-08-07T05:22:12.752Z,18.80
2022-08-07T05:24:57.177Z,18.90
2022-08-07T05:28:05.976Z,19.00
2022-08-07T05:30:21.155Z,19.10
2022-08-07T05:33:03.253Z,19.10
2022-08-07T05:35:41.747Z,19.10
2022-08-07T05:38:12.418Z,19.20
2022-08-07T05:41:02.257Z,19.30
2022-08-07T05:44:07.732Z,19.30
2022-08-07T05:46:32.285Z,19.40
2022-08-07T05:49:01.301Z,19.50
2022-08-07T05:51:42.545Z,19.50
2022-08-07T05:54:29.987Z,19.60
2022-08-07T05:56:59.975Z,19.60
2022-08-07T05:59:46.624Z,19.70
2022-08-07T06:02:28.542Z,19.70
2022-08-07T06:05:03.371Z,19.80
2022-08-07T06:08:14.537Z,19.90
2022-08-07T06:10:24.414Z,19.90
2022-08-07T06:12:52.481Z,20.00
2022-08-07T06:15:23.066Z,20.10
2022-08-07T06:18:10.336Z,20.20
2022-08-07T06:20:51.061Z,20.20
2022-08-07T06:24:38.526Z,20.20
2022-08-07T06:26:17.911Z,20.20
2022-08-07T06:28:50.543Z,20.30
2022-08-07T06:31:24.264Z,20.40
2022-08-07T06:34:11.063Z,20.40
2022-08-07T06:36:41.553Z,20.50
2022-08-07T06:40:13.051Z,20.50
2022-08-07T06:42:07.094Z,20.50
2022-08-07T06:44:57.721Z,20.60
2022-08-07T06:47:27.708Z,20.70
2022-08-07T06:50:08.358Z,20.80
2022-08-07T06:52:45.162Z,20.80
2022-08-07T06:55:31.421Z,20.90
2022-08-07T06:58:10.583Z,21.00
2022-08-07T07:00:55.278Z,21.10
2022-08-07T07:03:47.924Z,21.10
2022-08-07T07:06:14.437Z,21.10
2022-08-07T07:08:52.089Z,21.20
2022-08-07T07:12:08.389Z,21.20
2022-08-07T07:14:10.052Z,21.30
2022-08-07T07:16:49.542Z,21.30
2022-08-07T07:19:54.713Z,21.30
2022-08-07T07:22:36.435Z,21.40
2022-08-07T07:26:30.591Z,21.50
2022-08-07T07:28:02.396Z,21.60
2022-08-07T07:30:38.721Z,21.60
2022-08-07T07:33:11.880Z,21.70
2022-08-07T07:36:03.962Z,21.70
2022-08-07T07:38:33.519Z,21.70
2022-08-07T07:41:05.340Z,21.80
2022-08-07T07:44:14.274Z,21.80
2022-08-07T07:46:39.874Z,21.90
2022-08-07T07:50:34.813Z,21.90
2022-08-07T07:52:12.729Z,21.90
2022-08-07T07:54:50.862Z,22.00
2022-08-07T07:57:43.719Z,22.00
2022-08-07T08:00:12.166Z,22.00
2022-08-07T08:03:05.341Z,22.00
2022-08-07T08:05:53.846Z,22.10
2022-08-07T08:08:35.339Z,22.10
2022-08-07T08:11:08.001Z,22.20
2022-08-07T08:13:54.332Z,22.20
2022-08-07T08:16:30.048Z,22.30
2022-08-07T08:19:17.260Z,22.30
2022-08-07T08:22:07.827Z,22.30
2022-08-07T08:25:04.438Z,22.40
2022-08-07T08:27:56.388Z,22.50
2022-08-07T08:30:27.969Z,22.50
2022-08-07T08:32:59.940Z,22.50
2022-08-07T08:35:38.978Z,22.50
2022-08-07T08:38:09.601Z,22.60
2022-08-07T08:40:43.766Z,22.60
2022-08-07T08:43:20.788Z,22.60
2022-08-07T08:46:09.143Z,22.60
2022-08-07T08:48:41.731Z,22.60
2022-08-07T08:51:26.036Z,22.70
2022-08-07T08:54:16.851Z,22.80
2022-08-07T08:56:50.899Z,22.80
2022-08-07T08:59:27.223Z,22.90
2022-08-07T09:02:01.425Z,22.90
2022-08-07T09:04:42.263Z,22.90
2022-08-07T09:07:23.265Z,22.90
2022-08-07T09:10:03.298Z,23.00
2022-08-07T09:12:53.289Z,23.00
2022-08-07T09:16:21.759Z,23.00
2022-08-07T09:18:52.894Z,23.00
2022-08-07T09:22:23.131Z,23.10
2022-08-07T09:24:58.904Z,23.10
2022-08-07T09:27:54.607Z,23.20
2022-08-07T09:30:48.181Z,23.20
2022-08-07T09:33:52.423Z,23.30
2022-08-07T09:36:35.646Z,23.40
2022-08-07T09:39:54.190Z,23.60
2022-08-07T09:42:28.343Z,23.60
2022-08-07T09:47:25.075Z,23.70
2022-08-07T09:48:19.228Z,23.80
2022-08-07T09:50:57.035Z,23.90
2022-08-07T09:53:41.226Z,24.00
2022-08-07T09:56:44.077Z,24.10
2022-08-07T09:59:44.704Z,24.20
2022-08-07T10:02:45.117Z,24.30
2022-08-07T10:05:59.875Z,24.30
2022-08-07T10:08:52.352Z,24.40
2022-08-07T10:12:01.723Z,24.60
2022-08-07T10:15:04.694Z,24.90
2022-08-07T10:18:01.293Z,25.40
2022-08-07T10:20:50.344Z,26.00
2022-08-07T10:24:05.649Z,26.40
2022-08-07T10:26:44.226Z,26.80
2022-08-07T10:29:43.218Z,27.00
2022-08-07T10:32:52.211Z,26.90
2022-08-07T10:35:56.562Z,27.20
2022-08-07T10:38:48.417Z,27.50
2022-08-07T10:41:51.790Z,27.70
2022-08-07T10:44:19.266Z,27.90
2022-08-07T10:47:11.546Z,28.00
2022-08-07T10:49:50.911Z,28.20
2022-08-07T10:52:31.847Z,28.40
2022-08-07T10:55:26.523Z,28.60
2022-08-07T10:58:11.595Z,28.80
2022-08-07T11:00:50.552Z,28.80
2022-08-07T11:03:37.648Z,29.10
2022-08-07T11:06:26.909Z,29.40
2022-08-07T11:09:02.747Z,29.50
2022-08-07T11:11:37.585Z,29.80
2022-08-07T11:14:45.308Z,30.00
2022-08-07T11:17:09.113Z,30.10
2022-08-07T11:19:41.018Z,30.40
2022-08-07T11:22:26.622Z,30.60
2022-08-07T11:25:07.533Z,30.80
2022-08-07T11:28:03.246Z,30.80
2022-08-07T11:30:42.227Z,30.70
2022-08-07T11:33:19.851Z,30.40
2022-08-07T11:36:25.192Z,30.50
2022-08-07T11:39:07.276Z,30.50
2022-08-07T11:42:01.955Z,31.00
2022-08-07T11:44:52.090Z,31.20
2022-08-07T11:47:39.180Z,31.50
2022-08-07T11:50:48.821Z,31.60
2022-08-07T11:53:37.878Z,31.60
2022-08-07T11:56:28.338Z,32.00
2022-08-07T12:00:08.844Z,32.20
2022-08-07T12:02:20.714Z,32.50
2022-08-07T12:05:28.921Z,32.70
2022-08-07T12:08:07.521Z,32.70
2022-08-07T12:11:08.162Z,33.20
2022-08-07T12:13:51.542Z,33.60
2022-08-07T12:16:30.492Z,33.90
2022-08-07T12:19:21.475Z,34.20
2022-08-07T12:22:39.273Z,34.70
2022-08-07T12:25:07.671Z,35.20
2022-08-07T12:28:08.589Z,35.60
2022-08-07T12:30:34.065Z,35.90
2022-08-07T12:33:18.855Z,36.40
2022-08-07T12:35:58.197Z,37.00
2022-08-07T12:38:36.759Z,37.00
2022-08-07T12:41:10.003Z,36.80
2022-08-07T12:44:02.677Z,37.00
2022-08-07T12:46:41.085Z,37.50
2022-08-07T12:49:25.888Z,37.70
2022-08-07T12:52:14.682Z,37.70
2022-08-07T12:54:57.312Z,37.40
2022-08-07T12:57:59.246Z,38.00
2022-08-07T13:00:32.734Z,38.60
2022-08-07T13:03:23.002Z,39.00
2022-08-07T13:06:26.902Z,38.90
2022-08-07T13:10:11.032Z,38.50
2022-08-07T13:12:10.232Z,38.00
2022-08-07T13:14:51.417Z,38.00
2022-08-07T13:17:40.082Z,37.40
2022-08-07T13:20:17.005Z,36.30
2022-08-07T13:22:53.363Z,36.70
2022-08-07T13:25:30.744Z,37.50
2022-08-07T13:28:10.806Z,38.50
2022-08-07T13:30:53.250Z,39.10
2022-08-07T13:34:30.971Z,39.30
2022-08-07T13:36:31.612Z,39.80
2022-08-07T13:39:28.239Z,40.50
2022-08-07T13:42:02.686Z,41.10
2022-08-07T13:44:37.165Z,41.70
2022-08-07T13:47:09.467Z,41.60
2022-08-07T13:50:35.436Z,41.80
2022-08-07T13:52:38.063Z,42.20
2022-08-07T13:55:19.249Z,41.80
2022-08-07T13:58:27.812Z,40.50
2022-08-07T14:01:00.798Z,41.20
2022-08-07T14:04:05.117Z,42.10
2022-08-07T14:06:33.502Z,42.00
2022-08-07T14:09:04.712Z,42.50
2022-08-07T14:11:53.493Z,42.80
2022-08-07T14:14:32.949Z,42.70
2022-08-07T14:17:13.005Z,43.10
2022-08-07T14:20:40.551Z,42.70
2022-08-07T14:22:48.326Z,43.00
2022-08-07T14:25:18.598Z,42.30
2022-08-07T14:28:10.440Z,41.80
2022-08-07T14:30:40.865Z,41.30
2022-08-07T14:33:10.083Z,40.80
2022-08-07T14:35:47.428Z,40.50
2022-08-07T14:38:30.249Z,40.10
2022-08-07T14:41:04.011Z,40.90
2022-08-07T14:43:58.780Z,41.50
2022-08-07T14:46:31.034Z,41.20
2022-08-07T14:49:17.209Z,42.30
2022-08-07T14:52:03.730Z,43.00
2022-08-07T14:54:35.906Z,43.70
2022-08-07T14:57:19.321Z,44.10
2022-08-07T15:00:05.707Z,44.50
2022-08-07T15:02:37.150Z,45.00
2022-08-07T15:05:20.187Z,45.40
2022-08-07T15:07:51.334Z,45.10
2022-08-07T15:10:26.556Z,45.20
2022-08-07T15:13:01.367Z,45.60
2022-08-07T15:15:38.585Z,45.60
2022-08-07T15:21:04.010Z,46.10
2022-08-07T15:25:02.886Z,45.60
2022-08-07T15:26:38.601Z,45.60
2022-08-07T15:30:06.885Z,45.30
2022-08-07T15:32:02.946Z,45.30
2022-08-07T15:34:37.456Z,45.30
2022-08-07T15:37:27.777Z,45.40
2022-08-07T15:39:59.609Z,45.40
2022-08-07T15:48:31.821Z,42.90
2022-08-07T15:53:58.525Z,38.80
2022-08-07T15:56:33.514Z,36.90
2022-08-07T15:59:05.675Z,35.50
2022-08-07T16:01:39.256Z,34.70
2022-08-07T16:04:15.307Z,34.20
2022-08-07T16:06:51.426Z,34.00
2022-08-07T16:09:41.855Z,33.70
2022-08-07T16:12:30.495Z,33.40
2022-08-07T16:15:07.124Z,33.10
2022-08-07T16:18:00.783Z,32.80
2022-08-07T16:21:43.719Z,32.40
2022-08-07T16:23:58.358Z,32.00
2022-08-07T16:26:59.258Z,31.90
2022-08-07T16:30:10.773Z,31.60
2022-08-07T16:32:39.354Z,31.40
2022-08-07T16:35:51.989Z,31.20
2022-08-07T16:38:29.608Z,31.10
2022-08-07T16:41:41.117Z,30.90
2022-08-07T16:45:14.674Z,30.80
2022-08-07T16:48:27.814Z,30.40
2022-08-07T16:52:01.910Z,30.10
2022-08-07T16:54:32.610Z,30.00
2022-08-07T16:57:15.812Z,30.00
2022-08-07T17:00:13.283Z,29.90
2022-08-07T17:03:17.044Z,29.70
2022-08-07T17:06:19.445Z,29.60
2022-08-07T17:09:09.722Z,29.60
2022-08-07T17:12:04.786Z,29.50
2022-08-07T17:14:46.039Z,29.50
2022-08-07T17:17:46.821Z,29.40
2022-08-07T17:20:30.069Z,29.30
2022-08-07T17:23:08.613Z,29.30
2022-08-07T17:25:56.982Z,29.20
2022-08-07T17:28:32.253Z,29.10
2022-08-07T17:31:16.593Z,29.10
2022-08-07T17:34:32.595Z,29.10
2022-08-07T17:36:48.975Z,29.10
2022-08-07T17:39:58.878Z,29.00
2022-08-07T17:42:58.443Z,28.90
2022-08-07T17:45:30.809Z,28.90
2022-08-07T17:48:08.687Z,28.80
2022-08-07T17:50:58.304Z,28.80
2022-08-07T17:53:59.854Z,28.70
2022-08-07T17:56:29.354Z,28.60
2022-08-07T17:59:09.802Z,28.50
2022-08-07T18:01:48.619Z,28.40
2022-08-07T18:04:34.531Z,28.30
2022-08-07T18:07:23.606Z,28.20
2022-08-07T18:10:06.161Z,28.20
2022-08-07T18:13:16.503Z,28.10
2022-08-07T18:15:56.632Z,28.00
2022-08-07T18:18:47.225Z,27.90
2022-08-07T18:21:51.602Z,27.90
2022-08-07T18:24:33.132Z,27.90
2022-08-07T18:27:17.209Z,27.90
2022-08-07T18:30:06.694Z,27.80
2022-08-07T18:33:10.697Z,27.70
2022-08-07T18:35:53.649Z,27.70
2022-08-07T18:38:55.183Z,27.60
2022-08-07T18:41:44.854Z,27.50
2022-08-07T18:44:30.273Z,27.40
2022-08-07T18:47:06.799Z,27.40
2022-08-07T18:50:19.461Z,27.40
2022-08-07T18:52:55.190Z,27.30
2022-08-07T18:55:41.015Z,27.20
2022-08-07T18:58:34.135Z,27.20
2022-08-07T19:02:17.389Z,27.10
2022-08-07T19:04:09.326Z,27.00
2022-08-07T19:06:48.312Z,26.80
2022-08-07T19:09:55.563Z,26.80
2022-08-07T19:12:21.712Z,26.60
2022-08-07T19:16:02.973Z,26.50
2022-08-07T19:18:18.662Z,26.40
2022-08-07T19:21:09.072Z,26.20
2022-08-07T19:23:59.479Z,26.10
2022-08-07T19:26:55.461Z,26.10
2022-08-07T19:31:05.261Z,26.00
2022-08-07T19:32:29.013Z,26.00
2022-08-07T19:35:02.935Z,25.90
2022-08-07T19:37:55.111Z,25.80
2022-08-07T19:40:31.452Z,25.70
2022-08-07T19:43:09.613Z,25.70
2022-08-07T19:46:07.466Z,25.60
2022-08-07T19:48:42.614Z,25.50
2022-08-07T19:51:19.972Z,25.40
2022-08-07T19:54:34.341Z,25.40
2022-08-07T19:57:51.231Z,25.40
2022-08-07T19:59:40.919Z,25.20
2022-08-07T20:02:19.166Z,25.20
2022-08-07T20:04:50.050Z,25.20
2022-08-07T20:07:47.363Z,25.20
2022-08-07T20:10:36.537Z,25.10
2022-08-07T20:13:15.746Z,25.10
2022-08-07T20:15:54.065Z,25.00
2022-08-07T20:18:32.205Z,25.00
2022-08-07T20:21:03.894Z,24.90
2022-08-07T20:23:51.842Z,24.70
2022-08-07T20:26:29.963Z,24.40
2022-08-07T20:29:46.822Z,24.30
2022-08-07T20:32:02.018Z,24.20
2022-08-07T20:34:50.222Z,24.10
2022-08-07T20:37:24.105Z,24.00
2022-08-07T20:40:04.252Z,23.90
2022-08-07T20:42:34.387Z,23.70
2022-08-07T20:45:33.159Z,23.70
2022-08-07T20:47:58.170Z,23.60
2022-08-07T20:50:30.569Z,23.70
2022-08-07T20:52:59.095Z,23.70
2022-08-07T20:55:27.359Z,23.70
2022-08-07T20:58:02.638Z,23.70
2022-08-07T21:00:42.927Z,23.70
2022-08-07T21:03:15.431Z,23.60
2022-08-07T21:05:55.732Z,23.70
2022-08-07T21:08:37.559Z,23.70
2022-08-07T21:11:12.232Z,23.60
2022-08-07T21:14:16.250Z,23.60
2022-08-07T21:16:56.427Z,23.60
2022-08-07T21:19:32.301Z,23.60
2022-08-07T21:22:20.969Z,23.60
2022-08-07T21:25:12.377Z,23.60
2022-08-07T21:27:54.169Z,23.50
